createdAt,value
2022-07-25T00:02:15.422Z,13.87
2022-07-25T00:04:44.590Z,15.73
2022-07-25T00:07:12.887Z,16.20
2022-07-25T00:09:41.052Z,18.57
2022-07-25T00:12:11.146Z,16.03
2022-07-25T00:14:39.499Z,14.03
2022-07-25T00:17:07.698Z,15.60
2022-07-25T00:19:37.222Z,16.10
2022-07-25T00:22:05.453Z,15.57
2022-07-25T00:24:33.994Z,18.23
2022-07-25T00:27:02.941Z,16.57
2022-07-25T00:29:31.282Z,15.70
2022-07-25T00:31:59.513Z,17.03
2022-07-25T00:34:27.653Z,16.43
2022-07-25T00:36:57.438Z,14.93
2022-07-25T00:39:25.798Z,14.70
2022-07-25T00:41:53.922Z,14.90
2022-07-25T00:44:26.227Z,15.63
2022-07-25T00:46:55.267Z,13.60
2022-07-25T00:49:24.073Z,15.50
2022-07-25T00:51:52.845Z,18.60
2022-07-25T00:54:22.779Z,15.67
2022-07-25T00:56:51.909Z,16.97
2022-07-25T00:59:20.207Z,15.73
2022-07-25T01:01:49.231Z,16.33
2022-07-25T01:04:18.015Z,15.23
2022-07-25T01:06:46.245Z,17.43
2022-07-25T01:09:14.450Z,15.90
2022-07-25T01:11:44.271Z,16.60
2022-07-25T01:14:12.641Z,14.60
2022-07-25T01:16:41.850Z,14.90
2022-07-25T01:19:10.271Z,16.40
2022-07-25T01:21:42.495Z,15.20
2022-07-25T01:24:11.519Z,17.37
2022-07-25T01:26:40.253Z,17.53
2022-07-25T01:29:08.404Z,15.63
2022-07-25T01:31:36.752Z,25.70
2022-07-25T01:34:05.765Z,17.13
2022-07-25T01:36:34.206Z,17.50
2022-07-25T01:39:03.763Z,16.30
2022-07-25T01:41:32.115Z,19.60
2022-07-25T01:44:00.404Z,17.17
2022-07-25T01:46:28.641Z,17.67
2022-07-25T01:48:56.783Z,14.60
2022-07-25T01:51:26.549Z,18.73
2022-07-25T01:53:54.890Z,17.63
2022-07-25T01:56:24.424Z,15.03
2022-07-25T01:58:53.060Z,16.23
2022-07-25T02:01:22.073Z,20.90
2022-07-25T02:03:51.228Z,16.10
2022-07-25T02:06:19.464Z,15.50
2022-07-25T02:08:48.083Z,16.60
2022-07-25T02:11:16.415Z,16.47
2022-07-25T02:13:46.465Z,18.50
2022-07-25T02:16:14.669Z,17.20
2022-07-25T02:18:42.794Z,16.73
2022-07-25T02:21:13.858Z,18.27
2022-07-25T02:23:43.669Z,17.93
2022-07-25T02:26:12.166Z,15.33
2022-07-25T02:28:40.674Z,17.80
2022-07-25T02:31:10.443Z,17.70
2022-07-25T02:33:39.391Z,17.80
2022-07-25T02:36:08.522Z,15.97
2022-07-25T02:38:36.780Z,16.93
2022-07-25T02:41:06.758Z,18.20
2022-07-25T02:43:35.002Z,19.87
2022-07-25T02:46:03.148Z,17.27
2022-07-25T02:48:32.898Z,21.30
2022-07-25T02:51:01.127Z,17.90
2022-07-25T02:53:55.563Z,16.33
2022-07-25T02:56:17.507Z,19.90
2022-07-25T02:58:49.395Z,19.07
2022-07-25T03:01:17.645Z,17.00
2022-07-25T03:03:47.410Z,18.43
2022-07-25T03:06:16.406Z,20.23
2022-07-25T03:08:44.611Z,18.77
2022-07-25T03:11:13.079Z,19.20
2022-07-25T03:13:41.545Z,23.50
2022-07-25T03:16:10.450Z,19.60
2022-07-25T03:18:38.771Z,21.70
2022-07-25T03:21:08.708Z,18.60
2022-07-25T03:23:37.043Z,16.30
2022-07-25T03:26:05.231Z,17.43
2022-07-25T03:28:33.369Z,20.27
2022-07-25T03:31:01.581Z,16.70
2022-07-25T03:33:29.849Z,17.97
2022-07-25T03:35:58.071Z,16.50
2022-07-25T03:38:27.565Z,17.80
2022-07-25T03:40:55.692Z,17.60
2022-07-25T03:43:23.917Z,15.47
2022-07-25T03:45:52.169Z,14.73
2022-07-25T03:48:20.509Z,15.70
2022-07-25T03:50:48.648Z,17.03
2022-07-25T03:53:16.965Z,16.00
2022-07-25T03:55:46.424Z,19.10
2022-07-25T03:58:14.800Z,16.57
2022-07-25T04:00:43.139Z,17.93
2022-07-25T04:03:12.590Z,17.47
2022-07-25T04:05:45.537Z,21.77
2022-07-25T04:08:15.570Z,14.80
2022-07-25T04:10:43.768Z,19.77
2022-07-25T04:13:13.673Z,17.60
2022-07-25T04:15:41.920Z,19.90
2022-07-25T04:18:10.234Z,19.33
2022-07-25T04:20:44.651Z,18.63
2022-07-25T04:23:12.786Z,17.13
2022-07-25T04:25:41.163Z,15.83
2022-07-25T04:28:09.402Z,25.03
2022-07-25T04:30:38.971Z,18.00
2022-07-25T04:33:07.981Z,16.70
2022-07-25T04:35:36.610Z,18.97
2022-07-25T04:38:07.681Z,16.53
2022-07-25T04:40:40.245Z,17.40
2022-07-25T04:43:09.565Z,21.60
2022-07-25T04:45:39.987Z,22.10
2022-07-25T04:48:08.445Z,16.40
2022-07-25T04:50:36.623Z,16.13
2022-07-25T04:53:05.098Z,14.87
2022-07-25T04:55:33.709Z,15.13
2022-07-25T04:58:01.945Z,14.47
2022-07-25T05:00:30.075Z,15.00
2022-07-25T05:02:59.880Z,17.93
2022-07-25T05:05:28.172Z,14.57
2022-07-25T05:07:58.109Z,16.30
2022-07-25T05:10:26.439Z,22.00
2022-07-25T05:12:54.609Z,14.37
2022-07-25T05:15:23.007Z,17.53
2022-07-25T05:17:51.272Z,17.70
2022-07-25T05:20:20.945Z,15.90
2022-07-25T05:22:49.180Z,23.37
2022-07-25T05:25:17.434Z,14.50
2022-07-25T05:27:45.564Z,19.37
2022-07-25T05:30:15.323Z,17.80
2022-07-25T05:32:43.692Z,16.10
2022-07-25T05:35:12.020Z,27.37
2022-07-25T05:37:42.193Z,20.47
2022-07-25T05:40:10.885Z,17.63
2022-07-25T05:42:39.083Z,15.00
2022-07-25T05:45:08.407Z,20.53
2022-07-25T05:47:37.008Z,19.73
2022-07-25T05:50:05.663Z,17.50
2022-07-25T05:52:33.852Z,26.00
2022-07-25T05:55:03.438Z,14.90
2022-07-25T05:57:31.682Z,17.17
2022-07-25T05:59:59.924Z,19.60
2022-07-25T06:02:28.254Z,21.23
2022-07-25T06:04:56.619Z,17.67
2022-07-25T06:07:24.808Z,16.57
2022-07-25T06:09:53.136Z,15.33
2022-07-25T06:12:24.278Z,18.00
2022-07-25T06:14:52.689Z,15.50
2022-07-25T06:17:21.796Z,15.77
2022-07-25T06:19:49.963Z,16.03
2022-07-25T06:22:19.661Z,14.80
2022-07-25T06:24:47.868Z,17.83
2022-07-25T06:27:20.265Z,16.23
2022-07-25T06:29:50.646Z,19.17
2022-07-25T06:32:19.015Z,14.23
2022-07-25T06:34:47.357Z,18.10
2022-07-25T06:37:16.145Z,16.70
2022-07-25T06:39:46.002Z,16.90
2022-07-25T06:42:14.823Z,17.87
2022-07-25T06:44:44.802Z,15.80
2022-07-25T06:47:14.890Z,18.10
2022-07-25T06:49:43.360Z,16.67
2022-07-25T06:52:11.650Z,12.37
2022-07-25T06:54:39.853Z,13.83
2022-07-25T06:57:09.037Z,17.67
2022-07-25T06:59:37.283Z,15.50
2022-07-25T07:02:05.465Z,16.57
2022-07-25T07:04:35.298Z,14.33
2022-07-25T07:07:03.477Z,17.30
2022-07-25T07:09:31.986Z,14.87
2022-07-25T07:12:00.517Z,17.10
2022-07-25T07:14:29.076Z,17.60
2022-07-25T07:16:57.361Z,16.90
2022-07-25T07:19:25.903Z,17.73
2022-07-25T07:21:55.564Z,18.80
2022-07-25T07:24:24.575Z,14.50
2022-07-25T07:26:53.615Z,20.10
2022-07-25T07:29:22.218Z,14.83
2022-07-25T07:31:50.601Z,23.37
2022-07-25T07:34:18.869Z,14.13
2022-07-25T07:36:47.096Z,14.87
2022-07-25T07:39:17.356Z,15.70
2022-07-25T07:41:45.559Z,13.30
2022-07-25T07:44:14.688Z,20.73
2022-07-25T07:46:42.947Z,14.30
2022-07-25T07:49:11.910Z,16.23
2022-07-25T07:51:40.414Z,25.93
2022-07-25T07:54:26.210Z,15.60
2022-07-25T07:56:55.939Z,15.40
2022-07-25T07:59:24.076Z,13.50
2022-07-25T08:01:52.230Z,18.23
2022-07-25T08:04:20.449Z,14.67
2022-07-25T08:06:48.966Z,14.80
2022-07-25T08:09:18.265Z,22.53
2022-07-25T08:11:46.510Z,16.20
2022-07-25T08:14:16.200Z,14.37
2022-07-25T08:16:44.492Z,21.63
2022-07-25T08:19:12.627Z,13.80
2022-07-25T08:21:41.022Z,13.03
2022-07-25T08:24:09.616Z,16.87
2022-07-25T08:26:38.115Z,25.90
2022-07-25T08:29:18.626Z,16.60
2022-07-25T08:31:49.104Z,13.77
2022-07-25T08:34:17.430Z,13.93
2022-07-25T08:36:45.507Z,14.90
2022-07-25T08:39:13.736Z,14.97
2022-07-25T08:41:42.590Z,16.23
2022-07-25T08:44:11.050Z,13.70
2022-07-25T08:46:39.389Z,13.63
2022-07-25T08:49:10.638Z,15.70
2022-07-25T08:51:39.345Z,16.87
2022-07-25T08:54:08.292Z,16.07
2022-07-25T08:56:36.874Z,13.23
2022-07-25T08:59:05.602Z,16.20
2022-07-25T09:01:35.092Z,16.27
2022-07-25T09:04:05.062Z,20.80
2022-07-25T09:06:34.908Z,13.17
2022-07-25T09:09:04.986Z,17.50
2022-07-25T09:11:34.629Z,15.43
2022-07-25T09:14:07.441Z,14.40
2022-07-25T09:16:40.448Z,15.20
2022-07-25T09:19:14.605Z,12.83
2022-07-25T09:21:45.987Z,12.47
2022-07-25T09:24:17.040Z,26.27
2022-07-25T09:26:46.821Z,15.97
2022-07-25T09:29:22.919Z,12.50
2022-07-25T09:31:51.643Z,12.43
2022-07-25T09:34:32.207Z,11.57
2022-07-25T09:37:02.648Z,13.00
2022-07-25T09:39:35.484Z,12.03
2022-07-25T09:42:04.201Z,13.37
2022-07-25T09:44:32.396Z,15.07
2022-07-25T09:47:11.756Z,14.10
2022-07-25T09:49:44.214Z,14.03
2022-07-25T09:52:14.011Z,11.90
2022-07-25T09:54:42.896Z,13.33
2022-07-25T09:57:11.433Z,12.00
2022-07-25T09:59:39.747Z,14.27
2022-07-25T10:02:10.353Z,14.40
2022-07-25T10:04:46.580Z,16.17
2022-07-25T10:07:17.864Z,14.67
2022-07-25T10:09:47.747Z,14.33
2022-07-25T10:12:19.536Z,11.93
2022-07-25T10:15:06.483Z,12.10
2022-07-25T10:17:34.885Z,11.80
2022-07-25T10:20:04.137Z,12.10
2022-07-25T10:22:57.589Z,13.73
2022-07-25T10:25:26.338Z,14.70
2022-07-25T10:28:01.110Z,11.20
2022-07-25T10:30:35.468Z,13.50
2022-07-25T10:33:05.025Z,10.90
2022-07-25T10:35:33.500Z,11.37
2022-07-25T10:38:05.599Z,18.40
2022-07-25T10:40:35.405Z,12.03
2022-07-25T10:43:08.433Z,9.37
2022-07-25T10:45:43.571Z,10.57
2022-07-25T10:48:14.021Z,11.00
2022-07-25T10:50:55.721Z,11.70
2022-07-25T10:53:38.446Z,11.57
2022-07-25T10:56:11.107Z,11.07
2022-07-25T10:58:57.836Z,9.40
2022-07-25T11:01:27.655Z,8.87
2022-07-25T11:03:57.498Z,10.50
2022-07-25T11:06:34.203Z,9.83
2022-07-25T11:09:05.674Z,9.20
2022-07-25T11:11:37.833Z,9.87
2022-07-25T11:14:06.775Z,11.30
2022-07-25T11:16:34.905Z,14.70
2022-07-25T11:19:03.289Z,11.00
2022-07-25T11:21:31.551Z,9.67
2022-07-25T11:23:59.829Z,13.43
2022-07-25T11:26:29.497Z,14.53
2022-07-25T11:28:57.633Z,11.07
2022-07-25T11:31:27.787Z,9.93
2022-07-25T11:33:56.218Z,10.87
2022-07-25T11:36:24.619Z,10.93
2022-07-25T11:38:53.592Z,9.70
2022-07-25T11:41:30.841Z,8.63
2022-07-25T11:43:59.173Z,9.23
2022-07-25T11:46:27.601Z,11.77
2022-07-25T11:49:05.635Z,11.10
2022-07-25T11:51:38.317Z,9.80
2022-07-25T11:54:10.637Z,8.37
2022-07-25T11:56:42.821Z,12.20
2022-07-25T11:59:12.306Z,11.97
2022-07-25T12:01:42.036Z,9.80
2022-07-25T12:04:11.842Z,11.23
2022-07-25T12:06:40.661Z,10.37
2022-07-25T12:09:18.274Z,9.10
2022-07-25T12:11:49.970Z,9.33
2022-07-25T12:14:18.272Z,11.00
2022-07-25T12:16:46.648Z,12.60
2022-07-25T12:19:21.972Z,9.77
2022-07-25T12:21:50.127Z,17.03
2022-07-25T12:24:18.294Z,9.17
2022-07-25T12:26:46.559Z,14.00
2022-07-25T12:29:16.073Z,9.50
2022-07-25T12:31:44.429Z,8.70
2022-07-25T12:34:12.670Z,8.20
2022-07-25T12:36:45.123Z,10.63
2022-07-25T12:39:13.644Z,7.80
2022-07-25T12:41:42.949Z,5.80
2022-07-25T12:44:11.568Z,7.13
2022-07-25T12:46:47.394Z,8.50
2022-07-25T12:49:17.517Z,7.43
2022-07-25T12:51:46.046Z,7.17
2022-07-25T12:54:21.677Z,6.13
2022-07-25T12:56:50.868Z,13.40
2022-07-25T12:59:19.143Z,9.13
2022-07-25T13:01:48.941Z,9.17
2022-07-25T13:04:17.431Z,6.80
2022-07-25T13:06:45.749Z,6.13
2022-07-25T13:09:13.909Z,9.00
2022-07-25T13:11:42.473Z,6.20
2022-07-25T13:14:10.832Z,9.10
2022-07-25T13:16:39.294Z,7.37
2022-07-25T13:19:09.459Z,6.10
2022-07-25T13:21:37.974Z,7.03
2022-07-25T13:24:08.174Z,9.63
2022-07-25T13:26:37.014Z,7.60
2022-07-25T13:29:08.721Z,8.00
2022-07-25T13:31:38.420Z,7.70
2022-07-25T13:34:08.640Z,7.07
2022-07-25T13:36:40.179Z,6.87
2022-07-25T13:39:08.963Z,8.00
2022-07-25T13:41:37.371Z,8.27
2022-07-25T13:44:05.896Z,7.70
2022-07-25T13:46:35.396Z,7.13
2022-07-25T13:49:13.792Z,7.77
2022-07-25T13:51:45.459Z,8.83
2022-07-25T13:54:13.812Z,7.40
2022-07-25T13:56:42.502Z,6.90
2022-07-25T13:59:14.525Z,6.20
2022-07-25T14:01:46.159Z,6.60
2022-07-25T14:04:14.386Z,7.70
2022-07-25T14:06:44.213Z,8.40
2022-07-25T14:09:12.384Z,6.43
2022-07-25T14:11:40.594Z,9.43
2022-07-25T14:14:08.752Z,8.00
2022-07-25T14:16:36.907Z,6.07
2022-07-25T14:19:05.499Z,6.00
2022-07-25T14:21:37.183Z,9.07
2022-07-25T14:24:07.449Z,5.80
2022-07-25T14:26:35.810Z,12.20
2022-07-25T14:29:04.917Z,8.47
2022-07-25T14:31:33.356Z,8.77
2022-07-25T14:34:01.473Z,8.67
2022-07-25T14:36:29.663Z,8.07
2022-07-25T14:38:57.837Z,7.20
2022-07-25T14:41:28.393Z,6.37
2022-07-25T14:43:56.577Z,7.80
2022-07-25T14:46:24.759Z,8.83
2022-07-25T14:48:54.444Z,6.67
2022-07-25T14:51:22.646Z,6.30
2022-07-25T14:53:53.236Z,6.90
2022-07-25T14:56:22.250Z,7.50
2022-07-25T14:58:51.860Z,7.20
2022-07-25T15:01:21.157Z,9.70
2022-07-25T15:03:49.731Z,7.73
2022-07-25T15:06:17.911Z,7.60
2022-07-25T15:08:46.060Z,7.13
2022-07-25T15:11:14.217Z,7.47
2022-07-25T15:13:42.371Z,6.23
2022-07-25T15:16:12.463Z,7.97
2022-07-25T15:19:05.349Z,6.93
2022-07-25T15:21:29.106Z,6.80
2022-07-25T15:23:57.572Z,8.43
2022-07-25T15:26:25.736Z,6.93
2022-07-25T15:28:53.905Z,7.20
2022-07-25T15:31:24.739Z,8.90
2022-07-25T15:33:54.874Z,7.07
2022-07-25T15:36:28.769Z,7.77
2022-07-25T15:38:57.889Z,9.30
2022-07-25T15:41:26.719Z,10.17
2022-07-25T15:43:55.087Z,7.63
2022-07-25T15:46:24.670Z,11.40
2022-07-25T15:48:52.936Z,11.40
2022-07-25T15:51:21.094Z,9.23
2022-07-25T15:53:49.229Z,7.47
2022-07-25T15:56:17.876Z,14.07
2022-07-25T15:58:46.237Z,7.47
2022-07-25T16:01:14.489Z,6.53
2022-07-25T16:03:44.303Z,7.23
2022-07-25T16:06:18.444Z,17.90
2022-07-25T16:08:47.261Z,9.23
2022-07-25T16:11:15.464Z,15.03
2022-07-25T16:13:43.729Z,9.07
2022-07-25T16:16:12.031Z,20.10
2022-07-25T16:18:40.541Z,8.90
2022-07-25T16:21:10.185Z,10.00
2022-07-25T16:23:42.595Z,14.30
2022-07-25T16:26:13.656Z,9.60
2022-07-25T16:28:42.126Z,7.00
2022-07-25T16:31:10.670Z,9.17
2022-07-25T16:33:39.011Z,9.70
2022-07-25T16:36:07.899Z,18.80
2022-07-25T16:38:37.533Z,10.70
2022-07-25T16:41:05.910Z,15.53
2022-07-25T16:43:34.329Z,14.20
2022-07-25T16:46:03.149Z,14.73
2022-07-25T16:48:32.042Z,7.80
2022-07-25T16:51:00.278Z,18.63
2022-07-25T16:53:28.520Z,12.93
2022-07-25T16:55:58.570Z,17.97
2022-07-25T16:58:27.252Z,18.13
2022-07-25T17:00:55.417Z,9.87
2022-07-25T17:03:24.422Z,10.83
2022-07-25T17:05:53.975Z,9.57
2022-07-25T17:08:22.166Z,10.97
2022-07-25T17:10:50.363Z,15.47
2022-07-25T17:13:19.924Z,9.20
2022-07-25T17:15:48.269Z,7.30
2022-07-25T17:18:16.488Z,6.33
2022-07-25T17:20:44.681Z,12.80
2022-07-25T17:23:12.967Z,11.13
2022-07-25T17:25:41.216Z,8.53
2022-07-25T17:28:09.927Z,7.90
2022-07-25T17:30:39.978Z,9.97
2022-07-25T17:33:08.144Z,8.37
2022-07-25T17:35:36.376Z,13.13
2022-07-25T17:38:04.619Z,7.07
2022-07-25T17:40:32.725Z,6.83
2022-07-25T17:43:01.554Z,6.80
2022-07-25T17:45:29.951Z,9.23
2022-07-25T17:47:59.553Z,7.30
2022-07-25T17:50:29.595Z,6.13
2022-07-25T17:52:59.612Z,6.90
2022-07-25T17:55:28.704Z,11.30
2022-07-25T17:57:59.681Z,5.37
2022-07-25T18:00:28.510Z,5.43
2022-07-25T18:02:56.820Z,6.90
2022-07-25T18:05:26.842Z,6.20
2022-07-25T18:07:55.132Z,9.00
2022-07-25T18:10:23.508Z,8.57
2022-07-25T18:12:52.205Z,5.83
2022-07-25T18:15:20.406Z,14.03
2022-07-25T18:17:49.586Z,7.03
2022-07-25T18:20:18.237Z,8.70
2022-07-25T18:22:47.842Z,6.20
2022-07-25T18:25:16.231Z,8.97
2022-07-25T18:27:45.755Z,10.63
2022-07-25T18:30:15.430Z,6.47
2022-07-25T18:32:45.650Z,7.40
2022-07-25T18:35:14.394Z,6.40
2022-07-25T18:37:43.766Z,8.00
2022-07-25T18:40:14.483Z,6.77
2022-07-25T18:42:42.621Z,8.20
2022-07-25T18:45:12.735Z,5.70
2022-07-25T18:47:41.038Z,7.53
2022-07-25T18:50:10.642Z,9.10
2022-07-25T18:52:38.864Z,8.30
2022-07-25T18:55:08.851Z,7.37
2022-07-25T18:57:39.242Z,6.63
2022-07-25T19:00:09.280Z,10.80
2022-07-25T19:02:37.669Z,7.00
2022-07-25T19:05:06.431Z,6.60
2022-07-25T19:07:40.854Z,7.90
2022-07-25T19:10:09.996Z,9.60
2022-07-25T19:12:39.617Z,8.10
2022-07-25T19:15:08.945Z,8.70
2022-07-25T19:17:37.827Z,8.80
2022-07-25T19:20:07.270Z,7.80
2022-07-25T19:22:35.497Z,6.10
2022-07-25T19:25:07.579Z,8.83
2022-07-25T19:27:35.897Z,8.50
2022-07-25T19:30:08.054Z,6.20
2022-07-25T19:32:36.522Z,9.70
2022-07-25T19:35:07.039Z,7.47
2022-07-25T19:37:35.268Z,7.50
2022-07-25T19:40:03.732Z,8.10
2022-07-25T19:42:31.887Z,11.00
2022-07-25T19:45:00.236Z,8.00
2022-07-25T19:47:29.749Z,11.83
2022-07-25T19:49:58.260Z,7.20
2022-07-25T19:52:26.637Z,9.13
2022-07-25T19:54:55.101Z,10.17
2022-07-25T19:57:23.290Z,10.43
2022-07-25T19:59:51.582Z,8.50
2022-07-25T20:02:19.965Z,6.97
2022-07-25T20:04:49.696Z,9.80
2022-07-25T20:07:17.963Z,12.50
2022-07-25T20:09:46.667Z,11.50
2022-07-25T20:12:14.847Z,8.10
2022-07-25T20:14:43.174Z,7.03
2022-07-25T20:17:11.676Z,10.30
2022-07-25T20:19:40.320Z,12.83
2022-07-25T20:22:10.735Z,10.90
2022-07-25T20:24:39.035Z,9.80
2022-07-25T20:27:07.455Z,10.20
2022-07-25T20:29:36.078Z,10.83
2022-07-25T20:32:06.354Z,13.63
2022-07-25T20:34:34.532Z,8.93
2022-07-25T20:37:03.029Z,9.33
2022-07-25T20:39:32.773Z,11.50
2022-07-25T20:42:01.091Z,11.87
2022-07-25T20:44:29.436Z,12.50
2022-07-25T20:46:57.609Z,11.40
2022-07-25T20:49:25.841Z,9.93
2022-07-25T20:51:54.739Z,8.27
2022-07-25T20:54:23.253Z,7.40
2022-07-25T20:56:53.214Z,7.47
2022-07-25T20:59:21.425Z,9.07
2022-07-25T21:01:49.767Z,12.97
2022-07-25T21:04:19.006Z,7.40
2022-07-25T21:06:47.340Z,8.40
2022-07-25T21:09:16.667Z,12.33
2022-07-25T21:11:44.943Z,6.97
2022-07-25T21:14:14.560Z,11.27
2022-07-25T21:16:42.861Z,10.10
2022-07-25T21:19:11.375Z,14.60
2022-07-25T21:21:39.929Z,14.70
2022-07-25T21:24:09.473Z,13.47
2022-07-25T21:26:39.368Z,14.43
2022-07-25T21:29:07.992Z,15.63
2022-07-25T21:31:37.920Z,13.73
2022-07-25T21:34:06.134Z,15.17
2022-07-25T21:36:35.028Z,13.10
2022-07-25T21:39:03.374Z,12.10
2022-07-25T21:41:31.689Z,23.80
2022-07-25T21:44:00.119Z,18.53
2022-07-25T21:46:28.346Z,13.80
2022-07-25T21:49:15.437Z,15.50
2022-07-25T21:51:44.870Z,18.00
2022-07-25T21:54:13.129Z,13.30
2022-07-25T21:56:42.235Z,15.70
2022-07-25T21:59:11.031Z,11.13
2022-07-25T22:01:40.162Z,13.60
2022-07-25T22:04:10.384Z,15.83
2022-07-25T22:06:38.678Z,14.77
2022-07-25T22:09:07.459Z,15.47
2022-07-25T22:11:42.667Z,17.20
2022-07-25T22:14:14.696Z,11.60
2022-07-25T22:16:42.932Z,12.93
2022-07-25T22:19:12.555Z,35.70
2022-07-25T22:21:41.012Z,13.50
2022-07-25T22:24:09.718Z,10.43
2022-07-25T22:26:38.482Z,11.00
2022-07-25T22:29:07.119Z,12.17
2022-07-25T22:31:35.638Z,15.07
2022-07-25T22:34:03.928Z,10.30
2022-07-25T22:36:33.426Z,9.47
2022-07-25T22:39:01.595Z,16.77
2022-07-25T22:41:29.690Z,12.53
2022-07-25T22:43:59.805Z,10.87
2022-07-25T22:46:29.487Z,10.23
2022-07-25T22:48:58.580Z,12.73
2022-07-25T22:51:27.412Z,10.43
2022-07-25T22:53:57.309Z,12.90
2022-07-25T22:56:25.971Z,13.37
2022-07-25T22:58:54.546Z,13.80
2022-07-25T23:01:23.072Z,13.60
2022-07-25T23:03:51.462Z,8.87
2022-07-25T23:06:20.820Z,13.53
2022-07-25T23:08:49.591Z,9.83
2022-07-25T23:11:19.246Z,16.70
2022-07-25T23:13:47.407Z,13.83
2022-07-25T23:16:15.693Z,16.03
2022-07-25T23:18:43.870Z,13.43
2022-07-25T23:21:12.237Z,11.03
2022-07-25T23:23:40.443Z,12.73
2022-07-25T23:26:08.557Z,15.17
2022-07-25T23:28:38.238Z,14.43
2022-07-25T23:31:06.501Z,11.70
2022-07-25T23:33:34.805Z,12.90
2022-07-25T23:36:02.928Z,10.90
2022-07-25T23:38:31.119Z,9.90
2022-07-25T23:40:59.253Z,9.50
2022-07-25T23:43:56.094Z,19.43
2022-07-25T23:46:16.941Z,7.60
2022-07-25T23:48:46.985Z,10.80
2022-07-25T23:51:16.674Z,17.73
2022-07-25T23:53:45.023Z,9.23
2022-07-25T23:56:17.252Z,8.90
2022-07-25T23:58:50.048Z,9.10
